Terminal Aerodrome Forecast
Issued by NWS

Home | Current Version | Previous Version | Text Only | Print | Product List | Glossary On
Versions: 1 2 3 4 5 6 7 8 9 10 11 12 13 14 15 16 17 18 19
000
FTUS46 KSEW 191700
TAFOLM
TAF
KOLM 191728Z 1918/2018 18012KT P6SM -RA SCT030 BKN045 OVC070
      TEMPO 1918/1920 2SM RA BR BKN030
     FM192000 22014G22KT P6SM -SHRA BKN040 OVC060
     FM200500 20010KT P6SM VCSH BKN040 BKN060
     FM201000 20004KT P6SM BKN050=

USA.gov is the U.S. government's official web portal to all federal, state and local government web resources and services.